Time;durP1;ratioP1;P1;durP2;ratioP2;P2;SDS_P1;SDS_P2;PMS_P1;PMS_P2;Temp;Humidity;BMP_temperature;BMP_pressure;BME280_temperature;BME280_humidity;BME280_pressure;Samples;Min_cycle;Max_cycle;Signal;HPM_P1;HPM_P2
2022/08/22 00:02:08;;;;;;;;;;;;;;;25.58;90.79;98938.38;5109557;28;20053;-90
2022/08/22 00:04:34;;;;;;;;;;;;;;;25.54;91.45;98944.94;5086282;27;19915;-90
2022/08/22 00:07:07;;;;;;;;;;;;;;;25.57;91.53;98934.09;5101523;28;19976;-89
2022/08/22 00:09:51;;;;;;;;;;;;;;;25.83;90.30;98936.88;5078906;28;19912;-89
2022/08/22 00:12:18;;;;;;;;;;;;;;;25.67;89.96;98934.88;5111580;27;19972;-91
2022/08/22 00:14:43;;;;;;;;;;;;;;;25.73;90.75;98942.19;5083198;28;19912;-90
2022/08/22 00:17:32;;;;;;;;;;;;;;;25.76;90.43;98943.72;5096618;28;19919;-90
2022/08/22 00:20:07;;;;;;;;;;;;;;;25.59;91.02;98942.66;5126253;27;19927;-90
2022/08/22 00:22:38;;;;;;;;;;;;;;;25.50;90.85;98941.75;5099338;28;19919;-88
2022/08/22 00:25:12;;;;;;;;;;;;;;;25.60;90.73;98939.06;5113975;28;19967;-88
2022/08/22 00:27:40;;;;;;;;;;;;;;;25.70;90.56;98939.00;5098037;28;19918;-90
2022/08/22 00:30:10;;;;;;;;;;;;;;;25.48;89.45;98942.88;5098827;27;19922;-89
2022/08/22 00:32:40;;;;;;;;;;;;;;;25.38;91.81;98946.38;5092184;28;19922;-90
2022/08/22 00:35:18;;;;;;;;;;;;;;;25.37;92.38;98939.44;5087480;28;20609;-89
2022/08/22 00:37:44;;;;;;;;;;;;;;;25.31;92.55;98942.66;5096415;28;19959;-90
2022/08/22 00:40:28;;;;;;;;;;;;;;;25.40;92.45;98940.97;5116749;27;19960;-89
2022/08/22 00:43:04;;;;;;;;;;;;;;;25.26;91.78;98939.63;5113798;27;20432;-90
2022/08/22 00:45:32;;;;;;;;;;;;;;;25.20;92.00;98943.69;5085333;28;19918;-89
2022/08/22 00:48:01;;;;;;;;;;;;;;;25.19;92.60;98943.81;5118648;27;19922;-90
2022/08/22 00:50:29;;;;;;;;;;;;;;;25.02;92.01;98940.94;5093511;28;19915;-90
2022/08/22 00:53:03;;;;;;;;;;;;;;;25.03;93.15;98932.03;5094908;28;19912;-89
2022/08/22 00:55:47;;;;;;;;;;;;;;;25.24;91.96;98938.94;5081819;28;19916;-89
2022/08/22 00:58:21;;;;;;;;;;;;;;;25.15;92.13;98939.78;5104819;27;20376;-89
2022/08/22 01:00:51;;;;;;;;;;;;;;;25.14;91.54;98940.75;5116414;27;20465;-89
2022/08/22 01:03:16;;;;;;;;;;;;;;;24.87;93.26;98936.25;5112983;28;19916;-90
2022/08/22 01:05:50;;;;;;;;;;;;;;;24.93;93.52;98936.50;5096118;28;20003;-90
2022/08/22 01:08:34;;;;;;;;;;;;;;;24.72;95.36;98933.22;5087080;28;20276;-90
2022/08/22 01:11:06;;;;;;;;;;;;;;;24.63;93.97;98929.63;5096763;28;19955;-89
2022/08/22 01:13:34;;;;;;;;;;;;;;;24.69;92.28;98929.06;5080267;28;19919;-90
2022/08/22 01:16:19;;;;;;;;;;;;;;;24.75;93.60;98932.94;5098394;27;19916;-90
2022/08/22 01:19:05;;;;;;;;;;;;;;;24.80;93.21;98930.72;5081204;28;19911;-89
2022/08/22 01:21:50;;;;;;;;;;;;;;;24.91;92.35;98927.91;5108097;27;19915;-89
2022/08/22 01:24:24;;;;;;;;;;;;;;;24.95;91.46;98923.19;5097555;28;19934;-89
2022/08/22 01:27:10;;;;;;;;;;;;;;;24.66;92.06;98924.09;5111557;28;19912;-89
2022/08/22 01:29:54;;;;;;;;;;;;;;;24.72;92.11;98922.69;5093282;28;19916;-89
2022/08/22 01:32:19;;;;;;;;;;;;;;;24.72;92.03;98928.78;5114013;27;20006;-89
2022/08/22 01:34:52;;;;;;;;;;;;;;;24.81;91.33;98921.81;5105553;28;19966;-89
2022/08/22 01:37:26;;;;;;;;;;;;;;;24.66;91.72;98924.09;5083892;28;19912;-89
2022/08/22 01:39:54;;;;;;;;;;;;;;;24.81;91.03;98930.59;5101157;28;19912;-89
2022/08/22 01:42:35;;;;;;;;;;;;;;;24.67;92.12;98925.72;5105430;28;19912;-89
2022/08/22 01:45:12;;;;;;;;;;;;;;;24.46;93.40;98939.03;5097812;28;19918;-89
2022/08/22 01:47:48;;;;;;;;;;;;;;;24.18;96.83;98938.06;5101579;28;19937;-89
2022/08/22 01:50:18;;;;;;;;;;;;;;;24.16;97.43;98932.94;5120468;28;19999;-89
2022/08/22 01:52:45;;;;;;;;;;;;;;;23.91;98.18;98938.72;5083540;28;19927;-89
2022/08/22 01:55:13;;;;;;;;;;;;;;;24.18;97.33;98938.06;5081076;28;19919;-90
2022/08/22 01:57:55;;;;;;;;;;;;;;;24.06;95.01;98932.06;5081742;28;19927;-90
2022/08/22 02:00:20;;;;;;;;;;;;;;;24.05;95.58;98940.94;5074951;28;20384;-90
2022/08/22 02:03:02;;;;;;;;;;;;;;;24.53;94.15;98936.72;5080400;28;19923;-89
2022/08/22 02:05:36;;;;;;;;;;;;;;;24.56;92.92;98942.53;5085093;28;20061;-89
2022/08/22 02:08:01;;;;;;;;;;;;;;;24.30;93.26;98944.03;5112342;28;19911;-89
2022/08/22 02:10:27;;;;;;;;;;;;;;;24.29;93.87;98943.19;5098082;28;20299;-89
2022/08/22 02:13:11;;;;;;;;;;;;;;;24.14;93.68;98945.38;5100083;28;19920;-89
2022/08/22 02:15:40;;;;;;;;;;;;;;;24.15;94.17;98947.06;5098985;28;19959;-89
2022/08/22 02:18:05;;;;;;;;;;;;;;;24.03;95.52;98942.06;5101469;27;19919;-89
2022/08/22 02:20:49;;;;;;;;;;;;;;;23.98;95.71;98940.66;5101151;28;19923;-89
2022/08/22 02:23:26;;;;;;;;;;;;;;;23.83;96.88;98946.44;5097838;28;19926;-89
2022/08/22 02:26:01;;;;;;;;;;;;;;;23.66;98.42;98946.09;5099427;27;19920;-89
2022/08/22 02:28:29;;;;;;;;;;;;;;;23.90;96.96;98932.63;5101668;27;19916;-89
2022/08/22 02:31:05;;;;;;;;;;;;;;;23.83;97.77;98936.75;5081362;28;20388;-89
2022/08/22 02:33:45;;;;;;;;;;;;;;;23.78;98.02;98939.78;5118044;27;19931;-89
2022/08/22 02:36:19;;;;;;;;;;;;;;;23.10;99.25;98939.47;5096900;28;20396;-89
2022/08/22 02:39:04;;;;;;;;;;;;;;;23.56;99.56;98937.31;5111540;27;19968;-89
2022/08/22 02:41:48;;;;;;;;;;;;;;;23.25;99.30;98947.88;5101114;28;19920;-90
2022/08/22 02:44:21;;;;;;;;;;;;;;;23.30;100.00;98948.28;5104330;27;20308;-89
2022/08/22 02:46:48;;;;;;;;;;;;;;;23.45;99.54;98938.28;5085050;28;19911;-89
2022/08/22 02:49:19;;;;;;;;;;;;;;;23.41;99.56;98941.31;5105486;27;20344;-89
2022/08/22 02:51:45;;;;;;;;;;;;;;;23.40;100.00;98940.47;5102976;28;19959;-89
2022/08/22 02:54:23;;;;;;;;;;;;;;;23.24;100.00;98940.97;5104112;27;19965;-89
2022/08/22 02:57:10;;;;;;;;;;;;;;;23.38;100.00;98931.88;5100910;27;19911;-89
2022/08/22 02:59:41;;;;;;;;;;;;;;;23.31;99.76;98934.22;5103593;27;20393;-89
2022/08/22 03:02:26;;;;;;;;;;;;;;;23.25;99.94;98937.34;5081125;28;20394;-89
2022/08/22 03:04:53;;;;;;;;;;;;;;;23.14;100.00;98942.69;5082461;27;19916;-89
2022/08/22 03:07:19;;;;;;;;;;;;;;;23.33;99.67;98934.91;5117538;27;20357;-89
2022/08/22 03:09:44;;;;;;;;;;;;;;;23.52;99.93;98928.88;5114033;28;19911;-89
2022/08/22 03:12:25;;;;;;;;;;;;;;;23.59;97.25;98916.03;5110282;28;20014;-89
2022/08/22 03:14:50;;;;;;;;;;;;;;;23.66;97.43;98922.44;5115033;27;19922;-89
2022/08/22 03:17:21;;;;;;;;;;;;;;;23.72;97.09;98921.91;5103521;27;19919;-89
2022/08/22 03:20:04;;;;;;;;;;;;;;;23.65;97.23;98928.66;5090724;27;20387;-89
2022/08/22 03:22:29;;;;;;;;;;;;;;;23.31;97.72;98928.97;5086625;27;19966;-89
2022/08/22 03:24:59;;;;;;;;;;;;;;;23.14;98.20;98927.75;5097369;28;19951;-89
2022/08/22 03:27:26;;;;;;;;;;;;;;;23.65;97.48;98918.16;5114469;27;19941;-89
2022/08/22 03:29:53;;;;;;;;;;;;;;;23.77;96.87;98917.09;5110627;27;19920;-89
2022/08/22 03:32:20;;;;;;;;;;;;;;;23.76;96.86;98914.59;5116046;27;19926;-88
2022/08/22 03:34:55;;;;;;;;;;;;;;;23.90;96.89;98913.38;5114534;27;19920;-89
2022/08/22 03:37:30;;;;;;;;;;;;;;;23.84;97.18;98917.38;5095713;28;20038;-89
2022/08/22 03:40:06;;;;;;;;;;;;;;;23.36;96.92;98915.41;5080892;28;19924;-89
2022/08/22 03:42:40;;;;;;;;;;;;;;;23.08;100.00;98924.81;5098456;27;19915;-90
2022/08/22 03:45:14;;;;;;;;;;;;;;;23.70;100.00;98921.19;5092097;28;19920;-89
2022/08/22 03:47:58;;;;;;;;;;;;;;;23.84;98.87;98911.31;5088918;28;19912;-90
2022/08/22 03:50:29;;;;;;;;;;;;;;;23.87;98.90;98911.03;5101684;28;20292;-90
2022/08/22 03:53:13;;;;;;;;;;;;;;;23.69;99.19;98911.63;5122048;27;19935;-90
2022/08/22 03:55:44;;;;;;;;;;;;;;;23.69;98.65;98919.53;5096688;28;19955;-90
2022/08/22 03:58:28;;;;;;;;;;;;;;;22.96;100.00;98926.66;5096556;28;19918;-90
2022/08/22 04:01:01;;;;;;;;;;;;;;;23.02;100.00;98930.63;5104548;28;19916;-90
2022/08/22 04:03:44;;;;;;;;;;;;;;;23.45;100.00;98913.78;5099002;28;19996;-90
2022/08/22 04:06:34;;;;;;;;;;;;;;;23.02;100.00;98917.47;5093303;27;20116;-88
2022/08/22 04:09:18;;;;;;;;;;;;;;;23.08;100.00;98927.44;5085340;28;19924;-88
2022/08/22 04:11:59;;;;;;;;;;;;;;;23.28;100.00;98920.50;5092751;27;19919;-88
2022/08/22 04:14:40;;;;;;;;;;;;;;;22.85;100.00;98929.34;5109547;27;19959;-88
2022/08/22 04:17:10;;;;;;;;;;;;;;;23.21;100.00;98930.69;5076936;28;19959;-88
2022/08/22 04:19:48;;;;;;;;;;;;;;;22.91;100.00;98918.34;5089034;27;19924;-89
2022/08/22 04:22:23;;;;;;;;;;;;;;;22.42;100.00;98925.91;5108159;27;19924;-88
2022/08/22 04:24:58;;;;;;;;;;;;;;;22.45;100.00;98917.78;5112454;27;19919;-88
2022/08/22 04:27:59;;;;;;;;;;;;;;;21.89;100.00;98933.66;5113238;27;20006;-88
2022/08/22 04:30:29;;;;;;;;;;;;;;;21.70;100.00;98931.69;5026318;28;19920;-87
2022/08/22 04:32:54;;;;;;;;;;;;;;;21.70;100.00;98932.50;5091747;27;20496;-88
2022/08/22 04:35:30;;;;;;;;;;;;;;;21.27;100.00;98932.38;5108547;27;19941;-88
2022/08/22 04:38:13;;;;;;;;;;;;;;;21.65;100.00;98929.41;5098399;27;19920;-88
2022/08/22 04:41:01;;;;;;;;;;;;;;;21.47;100.00;98929.06;5086439;28;19920;-88
2022/08/22 04:43:29;;;;;;;;;;;;;;;22.12;100.00;98918.69;5109572;27;19915;-88
2022/08/22 04:46:00;;;;;;;;;;;;;;;22.35;100.00;98916.84;5085440;27;19919;-88
2022/08/22 04:48:33;;;;;;;;;;;;;;;22.43;100.00;98913.63;5109941;27;19935;-87
2022/08/22 04:51:07;;;;;;;;;;;;;;;22.32;100.00;98922.34;5085597;28;20013;-88
2022/08/22 04:53:39;;;;;;;;;;;;;;;22.26;100.00;98922.84;5101729;27;19979;-88
2022/08/22 04:56:23;;;;;;;;;;;;;;;22.79;100.00;98914.97;5116556;27;19916;-89
2022/08/22 04:59:15;;;;;;;;;;;;;;;22.42;100.00;98912.78;5116532;27;20033;-88
2022/08/22 05:01:52;;;;;;;;;;;;;;;21.25;100.00;98926.44;5111361;27;19920;-88
2022/08/22 05:04:27;;;;;;;;;;;;;;;21.84;100.00;98918.28;5081099;27;19912;-88
2022/08/22 05:06:55;;;;;;;;;;;;;;;21.74;100.00;98917.38;5116227;27;19930;-88
2022/08/22 05:09:23;;;;;;;;;;;;;;;22.62;100.00;98912.91;5074797;27;20394;-87
2022/08/22 05:11:49;;;;;;;;;;;;;;;22.74;100.00;98922.41;5088108;28;19960;-87
2022/08/22 05:14:15;;;;;;;;;;;;;;;21.64;100.00;98932.97;5073580;28;19915;-83
2022/08/22 05:16:41;;;;;;;;;;;;;;;21.60;100.00;98931.59;5106691;27;19916;-86
2022/08/22 05:19:08;;;;;;;;;;;;;;;21.47;100.00;98936.94;5074358;27;19916;-87
2022/08/22 05:21:37;;;;;;;;;;;;;;;21.72;100.00;98930.59;5074089;27;19922;-88
2022/08/22 05:24:07;;;;;;;;;;;;;;;20.99;100.00;98947.59;5076809;27;19946;-87
2022/08/22 05:26:42;;;;;;;;;;;;;;;20.89;100.00;98941.38;5082670;27;19979;-88
2022/08/22 05:29:08;;;;;;;;;;;;;;;21.33;100.00;98944.19;5067411;27;19993;-87
2022/08/22 05:31:34;;;;;;;;;;;;;;;21.02;100.00;98946.53;5090105;28;20336;-87
2022/08/22 05:34:03;;;;;;;;;;;;;;;21.70;100.00;98937.75;5089386;27;20028;-87
2022/08/22 05:36:39;;;;;;;;;;;;;;;22.21;100.00;98945.97;5077759;28;20061;-87
2022/08/22 05:39:12;;;;;;;;;;;;;;;22.60;100.00;98935.81;5089344;28;19912;-87
2022/08/22 05:41:40;;;;;;;;;;;;;;;22.83;99.91;98937.38;5074772;28;19927;-88
2022/08/22 05:44:10;;;;;;;;;;;;;;;23.22;100.00;98937.63;5075735;28;19968;-88
2022/08/22 05:46:42;;;;;;;;;;;;;;;23.67;98.34;98937.22;5075336;28;19923;-88
2022/08/22 05:49:26;;;;;;;;;;;;;;;24.54;95.72;98935.72;5067866;28;20069;-88
2022/08/22 05:52:09;;;;;;;;;;;;;;;24.74;94.64;98928.63;5086592;28;20443;-87
2022/08/22 05:54:42;;;;;;;;;;;;;;;24.90;94.32;98934.16;5093642;27;19920;-87
2022/08/22 05:57:10;;;;;;;;;;;;;;;24.93;92.90;98941.78;5074821;27;20069;-86
2022/08/22 05:59:37;;;;;;;;;;;;;;;24.16;92.38;98942.63;5075477;27;20213;-86
2022/08/22 06:02:08;;;;;;;;;;;;;;;23.37;96.19;98951.22;5070334;27;19920;-86
2022/08/22 06:04:53;;;;;;;;;;;;;;;23.41;96.45;98947.38;5103058;27;20209;-85
2022/08/22 06:07:24;;;;;;;;;;;;;;;24.31;94.14;98935.97;5089114;27;19937;-86
2022/08/22 06:10:11;;;;;;;;;;;;;;;24.06;94.31;98939.97;5072099;27;20236;-86
2022/08/22 06:12:39;;;;;;;;;;;;;;;22.36;100.00;98955.25;5107194;27;19967;-87
2022/08/22 06:15:12;;;;;;;;;;;;;;;22.68;100.00;98952.59;5090238;27;20288;-86
2022/08/22 06:17:42;;;;;;;;;;;;;;;23.87;96.20;98948.66;5090327;27;19962;-89
2022/08/22 06:20:08;;;;;;;;;;;;;;;23.59;95.46;98950.22;5083240;27;20061;-89
2022/08/22 06:22:37;;;;;;;;;;;;;;;25.19;92.55;98935.91;5081424;27;20014;-89
2022/08/22 06:25:12;;;;;;;;;;;;;;;25.64;88.85;98940.44;5084404;27;19964;-90
2022/08/22 06:27:45;;;;;;;;;;;;;;;25.71;88.88;98944.16;5090320;27;19916;-89
2022/08/22 06:30:13;;;;;;;;;;;;;;;24.53;88.59;98942.78;5102494;27;19918;-90
2022/08/22 06:32:43;;;;;;;;;;;;;;;25.54;89.89;98945.75;5085938;27;20284;-90
2022/08/22 06:35:15;;;;;;;;;;;;;;;26.12;84.90;98934.06;5105262;27;19930;-90
2022/08/22 06:37:41;;;;;;;;;;;;;;;26.43;83.96;98936.31;5088183;27;20386;-89
2022/08/22 06:40:07;;;;;;;;;;;;;;;26.50;84.47;98942.66;5091310;28;19912;-90
2022/08/22 06:42:33;;;;;;;;;;;;;;;26.75;83.35;98943.69;5079041;28;20276;-90
2022/08/22 06:45:02;;;;;;;;;;;;;;;26.78;83.25;98940.75;5093760;27;20022;-90
2022/08/22 06:47:36;;;;;;;;;;;;;;;26.85;81.86;98933.06;5113131;28;20378;-89
2022/08/22 06:50:05;;;;;;;;;;;;;;;27.12;79.82;98932.88;5121249;27;20293;-89
2022/08/22 06:52:32;;;;;;;;;;;;;;;26.98;79.61;98933.47;5106516;28;20007;-88
2022/08/22 06:55:04;;;;;;;;;;;;;;;27.38;78.03;98933.88;5088235;27;19912;-87
2022/08/22 06:57:41;;;;;;;;;;;;;;;27.48;76.40;98943.34;5116924;27;19918;-87
2022/08/22 07:00:09;;;;;;;;;;;;;;;26.27;83.42;98945.78;5101979;27;19919;-87
2022/08/22 07:02:45;;;;;;;;;;;;;;;27.06;79.18;98944.06;5094430;27;19965;-87
2022/08/22 07:05:14;;;;;;;;;;;;;;;26.36;82.59;98945.81;5082570;27;19922;-87
2022/08/22 07:07:39;;;;;;;;;;;;;;;26.92;77.49;98942.84;5103734;28;19945;-87
2022/08/22 07:10:05;;;;;;;;;;;;;;;26.47;78.48;98941.13;5086318;27;19916;-87
2022/08/22 07:12:31;;;;;;;;;;;;;;;26.26;76.64;98941.44;5101988;27;20582;-88
2022/08/22 07:14:59;;;;;;;;;;;;;;;27.46;76.17;98934.75;5084761;27;19912;-87
2022/08/22 07:17:31;;;;;;;;;;;;;;;26.56;77.47;98936.78;5111912;27;19916;-88
2022/08/22 07:20:16;;;;;;;;;;;;;;;27.23;75.26;98939.75;5082629;27;19919;-87
2022/08/22 07:22:49;;;;;;;;;;;;;;;27.13;72.55;98939.81;5114014;27;19912;-88
2022/08/22 07:25:14;;;;;;;;;;;;;;;27.19;75.19;98942.84;5115829;27;19915;-87
2022/08/22 07:27:50;;;;;;;;;;;;;;;28.08;71.79;98938.94;5095350;27;20391;-87
2022/08/22 07:30:16;;;;;;;;;;;;;;;28.52;69.35;98947.44;5098389;27;19916;-87
2022/08/22 07:32:56;;;;;;;;;;;;;;;27.00;72.36;98957.91;5101151;27;19912;-88
2022/08/22 07:35:42;;;;;;;;;;;;;;;28.29;69.30;98951.69;5085003;27;20358;-87
2022/08/22 07:38:12;;;;;;;;;;;;;;;28.01;69.51;98943.19;5078633;28;19964;-88
2022/08/22 07:40:47;;;;;;;;;;;;;;;28.00;67.53;98944.19;5113248;27;20337;-86
2022/08/22 07:43:29;;;;;;;;;;;;;;;27.97;70.15;98944.53;5096501;27;19916;-87
2022/08/22 07:45:56;;;;;;;;;;;;;;;28.61;68.93;98942.97;5081167;27;19915;-87
2022/08/22 07:48:35;;;;;;;;;;;;;;;28.74;67.34;98945.94;5101566;27;19935;-88
2022/08/22 07:51:06;;;;;;;;;;;;;;;29.00;64.96;98942.25;5092092;27;20699;-88
2022/08/22 07:53:42;;;;;;;;;;;;;;;28.51;69.70;98948.44;5089671;28;19911;-88
2022/08/22 07:56:14;;;;;;;;;;;;;;;28.29;69.17;98944.56;5096993;28;19926;-87
2022/08/22 07:58:40;;;;;;;;;;;;;;;27.79;73.06;98965.78;5097708;28;19918;-88
2022/08/22 08:01:09;;;;;;;;;;;;;;;29.06;72.37;98954.00;5084828;28;19930;-88
2022/08/22 08:03:34;;;;;;;;;;;;;;;29.03;68.41;98955.16;5099346;27;20362;-88
2022/08/22 08:06:00;;;;;;;;;;;;;;;29.79;66.74;98960.97;5109375;28;19916;-87
2022/08/22 08:08:30;;;;;;;;;;;;;;;29.26;63.85;98960.59;5084185;27;19931;-89
2022/08/22 08:10:56;;;;;;;;;;;;;;;28.96;67.65;98962.97;5087628;27;20617;-90
2022/08/22 08:13:33;;;;;;;;;;;;;;;28.63;72.80;98967.47;5085479;27;20066;-89
2022/08/22 08:15:59;;;;;;;;;;;;;;;29.54;67.04;98963.69;5087026;27;19911;-89
2022/08/22 08:18:25;;;;;;;;;;;;;;;29.46;65.35;98955.75;5102221;28;20194;-90
2022/08/22 08:20:51;;;;;;;;;;;;;;;30.63;61.37;98958.41;5088152;28;19915;-90
2022/08/22 08:23:18;;;;;;;;;;;;;;;30.28;63.41;98952.72;5115050;27;19919;-90
2022/08/22 08:25:52;;;;;;;;;;;;;;;30.60;60.40;98948.16;5110258;28;19912;-90
2022/08/22 08:28:33;;;;;;;;;;;;;;;30.16;65.13;98951.44;5107524;28;19912;-90
2022/08/22 08:31:11;;;;;;;;;;;;;;;30.33;61.66;98950.34;5102708;28;19965;-90
2022/08/22 08:33:38;;;;;;;;;;;;;;;30.76;59.65;98952.50;5116180;28;19915;-90
2022/08/22 08:36:26;;;;;;;;;;;;;;;30.54;57.97;98943.53;5095685;27;19951;-90
2022/08/22 08:38:54;;;;;;;;;;;;;;;29.68;63.33;98945.41;5108272;27;20006;-89
2022/08/22 08:41:30;;;;;;;;;;;;;;;29.65;64.37;98943.06;5105284;27;19920;-89
2022/08/22 08:44:04;;;;;;;;;;;;;;;29.41;64.52;98939.53;5093913;28;20299;-88
2022/08/22 08:46:29;;;;;;;;;;;;;;;30.70;62.06;98940.75;5111517;27;19915;-88
2022/08/22 08:49:13;;;;;;;;;;;;;;;30.87;62.90;98937.97;5097931;27;19920;-89
2022/08/22 08:51:41;;;;;;;;;;;;;;;31.95;56.93;98942.69;5093980;27;19922;-89
2022/08/22 08:54:25;;;;;;;;;;;;;;;32.39;51.35;98928.41;5109263;27;19916;-88
2022/08/22 08:56:58;;;;;;;;;;;;;;;30.41;60.04;98931.69;5100813;28;19912;-89
2022/08/22 08:59:26;;;;;;;;;;;;;;;31.99;54.75;98928.00;5111537;27;19937;-89
2022/08/22 09:02:04;;;;;;;;;;;;;;;32.75;53.62;98926.66;5104256;28;19923;-89
2022/08/22 09:04:32;;;;;;;;;;;;;;;32.94;50.52;98917.16;5085621;28;19912;-90
2022/08/22 09:07:06;;;;;;;;;;;;;;;32.42;52.42;98922.69;5104732;28;19958;-92
2022/08/22 09:09:41;;;;;;;;;;;;;;;30.35;63.39;98924.44;5084370;28;19911;-89
2022/08/22 09:12:10;;;;;;;;;;;;;;;32.04;54.10;98904.28;5077647;27;19916;-90
2022/08/22 09:14:47;;;;;;;;;;;;;;;31.66;55.95;98912.47;5115900;27;19916;-89
2022/08/22 09:17:32;;;;;;;;;;;;;;;32.20;55.08;98907.72;5096647;28;20383;-89
2022/08/22 09:20:12;;;;;;;;;;;;;;;31.72;54.83;98915.38;5096783;27;19923;-89
2022/08/22 09:22:38;;;;;;;;;;;;;;;32.40;56.88;98903.38;5098382;28;19916;-89
2022/08/22 09:25:11;;;;;;;;;;;;;;;32.86;50.08;98894.09;5098022;27;20283;-89
2022/08/22 09:27:39;;;;;;;;;;;;;;;32.25;52.70;98899.97;5076760;27;20716;-89
2022/08/22 09:30:07;;;;;;;;;;;;;;;33.11;49.37;98889.16;5090711;27;20014;-90
2022/08/22 09:32:43;;;;;;;;;;;;;;;32.11;49.74;98893.69;5089479;27;19911;-88
2022/08/22 09:35:16;;;;;;;;;;;;;;;31.54;56.86;98895.31;5076420;27;20046;-90
2022/08/22 09:37:47;;;;;;;;;;;;;;;32.46;51.35;98889.28;5083333;27;19911;-89
2022/08/22 09:40:14;;;;;;;;;;;;;;;33.57;52.27;98883.19;5098261;28;19916;-90
2022/08/22 09:42:58;;;;;;;;;;;;;;;33.69;46.11;98876.28;5107274;28;19911;-91
2022/08/22 09:45:44;;;;;;;;;;;;;;;33.69;47.85;98878.94;5096513;28;19916;-88
2022/08/22 09:48:28;;;;;;;;;;;;;;;32.68;46.91;98867.94;5098384;28;19926;-91
2022/08/22 09:50:54;;;;;;;;;;;;;;;31.98;48.67;98873.09;5092633;28;19912;-91
2022/08/22 09:53:38;;;;;;;;;;;;;;;32.81;47.89;98873.34;5101865;28;20482;-91
2022/08/22 09:56:04;;;;;;;;;;;;;;;34.15;44.36;98869.41;5103091;28;19916;-93
2022/08/22 09:58:34;;;;;;;;;;;;;;;33.23;44.26;98862.72;5101540;28;20091;-91
2022/08/22 10:01:18;;;;;;;;;;;;;;;33.58;43.93;98863.50;5090712;28;20301;-91
2022/08/22 10:03:44;;;;;;;;;;;;;;;32.92;47.22;98861.31;5099610;28;20014;-91
2022/08/22 10:06:11;;;;;;;;;;;;;;;32.84;48.33;98870.28;5102609;28;20023;-91
2022/08/22 10:08:48;;;;;;;;;;;;;;;34.81;44.83;98863.19;5089687;28;19920;-92
2022/08/22 10:11:18;;;;;;;;;;;;;;;33.64;42.05;98862.72;5095474;28;19912;-93
2022/08/22 10:13:52;;;;;;;;;;;;;;;33.84;44.20;98857.38;5087712;28;19916;-87
2022/08/22 10:16:21;;;;;;;;;;;;;;;34.67;40.64;98851.69;5099841;28;20020;-90
2022/08/22 10:18:51;;;;;;;;;;;;;;;34.23;41.54;98849.66;5088223;28;19922;-92
2022/08/22 10:21:35;;;;;;;;;;;;;;;33.92;40.29;98849.19;5095025;28;20358;-91
2022/08/22 10:24:02;;;;;;;;;;;;;;;35.07;40.45;98850.75;5097533;28;19911;-92
2022/08/22 10:26:30;;;;;;;;;;;;;;;34.39;40.77;98854.56;5078215;28;20030;-91
2022/08/22 10:29:07;;;;;;;;;;;;;;;34.76;41.03;98849.59;5081097;28;20388;-91
2022/08/22 10:31:33;;;;;;;;;;;;;;;32.76;44.64;98849.13;5103307;28;19919;-92
2022/08/22 10:34:04;;;;;;;;;;;;;;;34.29;44.53;98835.47;5103145;28;19911;-91
2022/08/22 10:36:49;;;;;;;;;;;;;;;32.82;44.79;98831.50;5098851;28;20676;-90
2022/08/22 10:39:17;;;;;;;;;;;;;;;33.80;41.56;98821.41;5112701;27;19922;-90
2022/08/22 10:41:48;;;;;;;;;;;;;;;35.39;39.60;98828.41;5080560;27;19927;-92
2022/08/22 10:44:15;;;;;;;;;;;;;;;34.79;39.32;98830.47;5093265;28;20401;-91
2022/08/22 10:46:45;;;;;;;;;;;;;;;33.19;41.89;98830.28;5084663;27;20046;-93
2022/08/22 10:49:11;;;;;;;;;;;;;;;33.34;43.32;98830.94;5087054;27;20284;-92
2022/08/22 10:51:43;;;;;;;;;;;;;;;33.07;42.47;98823.84;5081860;27;19919;-93
2022/08/22 10:54:27;;;;;;;;;;;;;;;31.76;47.89;98821.63;5102873;28;19911;-93
2022/08/22 10:56:52;;;;;;;;;;;;;;;34.06;40.94;98815.28;5098964;28;19986;-92
2022/08/22 10:59:31;;;;;;;;;;;;;;;35.10;41.14;98818.22;5101041;27;19954;-93
2022/08/22 11:02:15;;;;;;;;;;;;;;;33.47;44.25;98819.47;5104627;27;19924;-92
2022/08/22 11:04:46;;;;;;;;;;;;;;;34.72;41.35;98822.47;5105185;27;19922;-89
2022/08/22 11:07:15;;;;;;;;;;;;;;;33.39;43.32;98826.84;5095172;27;19923;-91
2022/08/22 11:09:44;;;;;;;;;;;;;;;35.47;41.52;98826.50;5102453;28;19916;-91
2022/08/22 11:12:20;;;;;;;;;;;;;;;32.47;43.93;98826.94;5085371;27;19916;-92
2022/08/22 11:14:51;;;;;;;;;;;;;;;33.45;43.39;98821.53;5096452;27;19911;-90
2022/08/22 11:17:16;;;;;;;;;;;;;;;35.23;39.72;98823.53;5094551;28;19915;-90
2022/08/22 11:19:43;;;;;;;;;;;;;;;36.75;39.28;98815.44;5094672;28;19912;-88
2022/08/22 11:22:11;;;;;;;;;;;;;;;35.27;41.13;98818.59;5090295;27;19920;-89
2022/08/22 11:24:58;;;;;;;;;;;;;;;33.81;41.77;98811.56;5102300;27;19943;-88
2022/08/22 11:27:38;;;;;;;;;;;;;;;36.09;38.43;98803.44;5068776;27;20325;-88
2022/08/22 11:30:24;;;;;;;;;;;;;;;36.22;37.89;98805.19;5096142;27;20015;-88
2022/08/22 11:33:08;;;;;;;;;;;;;;;33.77;39.26;98821.03;5046956;27;20395;-88
2022/08/22 11:35:43;;;;;;;;;;;;;;;35.78;37.85;98815.00;5103869;27;20165;-87
2022/08/22 11:38:21;;;;;;;;;;;;;;;35.72;37.92;98799.78;5087471;27;19995;-87
2022/08/22 11:40:46;;;;;;;;;;;;;;;36.58;38.08;98803.59;5093733;27;19919;-86
2022/08/22 11:43:31;;;;;;;;;;;;;;;37.73;35.35;98808.22;5112475;27;20530;-87
2022/08/22 11:45:57;;;;;;;;;;;;;;;35.50;36.22;98813.50;5112500;27;19916;-87
2022/08/22 11:48:27;;;;;;;;;;;;;;;35.19;37.75;98811.59;5085895;28;19915;-87
2022/08/22 11:51:11;;;;;;;;;;;;;;;36.65;36.64;98799.03;5092789;27;20380;-87
2022/08/22 11:53:43;;;;;;;;;;;;;;;35.02;37.73;98805.09;5112935;27;20036;-87
2022/08/22 11:56:21;;;;;;;;;;;;;;;36.19;33.88;98794.91;5092090;27;20388;-87
2022/08/22 11:58:52;;;;;;;;;;;;;;;34.76;36.28;98799.63;5106638;27;19916;-87
2022/08/22 12:01:18;;;;;;;;;;;;;;;35.84;36.23;98791.91;5079294;27;19920;-87
2022/08/22 12:04:13;;;;;;;;;;;;;;;36.14;35.06;98800.94;5093329;27;19922;-87
2022/08/22 12:06:39;;;;;;;;;;;;;;;35.48;37.11;98794.16;5092281;27;19915;-87
2022/08/22 12:09:07;;;;;;;;;;;;;;;36.67;34.00;98788.88;5109463;27;19919;-87
2022/08/22 12:11:36;;;;;;;;;;;;;;;37.33;35.20;98789.94;5094841;27;19916;-87
2022/08/22 12:14:03;;;;;;;;;;;;;;;37.52;32.19;98787.19;5096598;27;20581;-87
2022/08/22 12:16:28;;;;;;;;;;;;;;;38.06;32.12;98774.59;5092346;27;20292;-87
2022/08/22 12:18:53;;;;;;;;;;;;;;;38.14;31.41;98773.44;5110820;27;19916;-87
2022/08/22 12:21:22;;;;;;;;;;;;;;;36.20;33.48;98775.13;5094234;27;19926;-87
2022/08/22 12:24:05;;;;;;;;;;;;;;;38.23;32.88;98772.88;5076296;27;20049;-87
2022/08/22 12:26:43;;;;;;;;;;;;;;;39.75;32.71;98778.03;5093140;27;19915;-87
2022/08/22 12:29:17;;;;;;;;;;;;;;;37.30;33.45;98771.59;5111258;27;20279;-88
2022/08/22 12:32:02;;;;;;;;;;;;;;;38.18;32.33;98770.06;5107487;27;19921;-87
2022/08/22 12:34:36;;;;;;;;;;;;;;;37.91;33.59;98752.69;5110721;27;19986;-87
2022/08/22 12:37:01;;;;;;;;;;;;;;;37.29;32.63;98758.41;5093360;27;19915;-87
2022/08/22 12:39:33;;;;;;;;;;;;;;;35.80;35.67;98754.81;5112491;27;19920;-87
2022/08/22 12:42:05;;;;;;;;;;;;;;;35.32;34.60;98754.50;5090948;27;20088;-87
2022/08/22 12:44:30;;;;;;;;;;;;;;;36.34;33.17;98743.63;5095449;28;20020;-87
2022/08/22 12:47:02;;;;;;;;;;;;;;;36.68;33.96;98747.63;5091387;27;19953;-87
2022/08/22 12:49:28;;;;;;;;;;;;;;;37.39;31.96;98740.69;5076029;27;19986;-87
2022/08/22 12:51:59;;;;;;;;;;;;;;;37.77;30.96;98747.56;5092502;27;20001;-87
2022/08/22 12:54:43;;;;;;;;;;;;;;;38.11;32.10;98742.44;5106432;27;19916;-87
2022/08/22 12:57:27;;;;;;;;;;;;;;;38.43;30.03;98740.22;5090201;27;19919;-87
2022/08/22 12:59:54;;;;;;;;;;;;;;;37.16;32.79;98740.63;5109709;27;19919;-87
2022/08/22 13:02:24;;;;;;;;;;;;;;;37.91;32.27;98741.94;5071447;27;19920;-86
2022/08/22 13:04:57;;;;;;;;;;;;;;;36.56;32.36;98736.78;5086187;28;19915;-86
2022/08/22 13:07:32;;;;;;;;;;;;;;;37.33;31.67;98738.91;5073006;27;19916;-86
2022/08/22 13:10:16;;;;;;;;;;;;;;;36.90;32.55;98739.88;5076515;27;19919;-86
2022/08/22 13:12:45;;;;;;;;;;;;;;;37.39;31.92;98735.31;5089775;27;20887;-87
2022/08/22 13:15:19;;;;;;;;;;;;;;;38.02;33.50;98739.31;5077534;27;20360;-87
2022/08/22 13:17:44;;;;;;;;;;;;;;;38.59;30.38;98735.97;5092598;27;19926;-87